createdAt,value
2023-01-11T00:02:30.054Z,75.16
2023-01-11T00:35:33.295Z,77.16
2023-01-11T01:04:15.029Z,80
2023-01-11T01:32:56.381Z,81.96
2023-01-11T02:01:46.584Z,84.32
2023-01-11T02:30:15.406Z,85.87
2023-01-11T02:59:12.837Z,85.95
2023-01-11T03:28:00.922Z,88.45
2023-01-11T03:56:47.998Z,87.45
2023-01-11T04:25:35.051Z,87.09
2023-01-11T04:54:21.780Z,87.06
2023-01-11T05:23:06.951Z,88.43
2023-01-11T05:51:52.678Z,89.4
2023-01-11T06:20:39.163Z,89.13
2023-01-11T06:49:31.216Z,88.73
2023-01-11T07:18:16.991Z,88.3
2023-01-11T07:46:55.640Z,87.49
2023-01-11T08:15:33.387Z,86.03
2023-01-11T08:44:33.568Z,84.14
2023-01-11T09:12:42.150Z,82.94
2023-01-11T09:41:09.461Z,82.65
2023-01-11T10:38:06.271Z,90.6
2023-01-11T11:06:28.423Z,94.84
2023-01-11T11:35:06.416Z,96.29
2023-01-11T12:03:38.823Z,97.97
2023-01-11T12:32:21.932Z,98.76
2023-01-11T13:00:58.085Z,100.13
2023-01-11T13:29:23.642Z,100.03
2023-01-11T13:57:46.287Z,100.64
2023-01-11T14:26:19.514Z,102.16
2023-01-11T14:54:40.433Z,97.97
2023-01-11T15:23:10.717Z,91.64
2023-01-11T15:51:39.564Z,90.95
2023-01-11T16:19:59.699Z,90.24
2023-01-11T16:48:32.115Z,87.21
2023-01-11T17:17:16.318Z,85.6
2023-01-11T17:45:41.806Z,87.38
2023-01-11T18:14:12.442Z,84.23
2023-01-11T18:42:42.204Z,83.42
2023-01-11T19:10:50.049Z,85.18
2023-01-11T19:39:27.624Z,88.9
2023-01-11T20:07:58.193Z,89.47
2023-01-11T20:36:36.064Z,88.19
2023-01-11T21:05:21.705Z,90.05
2023-01-11T21:33:48.076Z,87.12
2023-01-11T22:02:21.273Z,88.82
2023-01-11T22:31:00.429Z,88.38
2023-01-11T22:59:26.975Z,87.4
2023-01-11T23:28:14.292Z,88.42
2023-01-11T23:56:44.481Z,90.54
